createdAt,value
2023-11-21T00:00:15.756Z,87.91
2023-11-21T00:01:15.829Z,87.97
2023-11-21T00:02:15.914Z,87.99
2023-11-21T00:03:15.857Z,88.05
2023-11-21T00:04:15.890Z,88.07
2023-11-21T00:05:15.852Z,88.04
2023-11-21T00:06:15.860Z,88.07
2023-11-21T00:07:15.949Z,88.10
2023-11-21T00:08:15.942Z,88.12
2023-11-21T00:09:16.515Z,88.09
2023-11-21T00:10:16.068Z,88.08
2023-11-21T00:11:15.966Z,88.04
2023-11-21T00:12:15.988Z,88.05
2023-11-21T00:13:16.027Z,88.07
2023-11-21T00:14:16.941Z,88.08
2023-11-21T00:15:16.079Z,88.09
2023-11-21T00:16:16.089Z,88.03
2023-11-21T00:17:16.138Z,87.97
2023-11-21T00:18:16.155Z,87.88
2023-11-21T00:19:16.158Z,87.83
2023-11-21T00:20:16.113Z,87.79
2023-11-21T00:21:16.141Z,87.78
2023-11-21T00:22:16.207Z,87.75
2023-11-21T00:23:16.178Z,87.67
2023-11-21T00:24:16.188Z,87.65
2023-11-21T00:25:16.599Z,87.60
2023-11-21T00:26:16.233Z,87.57
2023-11-21T00:27:16.264Z,87.57
2023-11-21T00:28:16.349Z,87.47
2023-11-21T00:29:16.301Z,87.45
2023-11-21T00:30:16.341Z,87.42
2023-11-21T00:31:16.412Z,87.43
2023-11-21T00:32:16.358Z,87.43
2023-11-21T00:33:16.492Z,87.43
2023-11-21T00:34:16.406Z,87.45
2023-11-21T00:35:16.410Z,87.52
2023-11-21T00:36:16.431Z,87.55
2023-11-21T00:37:16.561Z,87.59
2023-11-21T00:38:16.459Z,87.67
2023-11-21T00:39:16.488Z,87.73
2023-11-21T00:40:16.768Z,87.78
2023-11-21T00:41:16.544Z,87.83
2023-11-21T00:42:16.534Z,87.90
2023-11-21T00:43:16.723Z,87.95
2023-11-21T00:44:16.581Z,87.99
2023-11-21T00:45:16.618Z,88.07
2023-11-21T00:46:16.690Z,88.15
2023-11-21T00:47:16.738Z,88.21
2023-11-21T00:48:16.756Z,88.27
2023-11-21T00:49:16.847Z,88.30
2023-11-21T00:50:16.758Z,88.38
2023-11-21T00:51:16.792Z,88.44
2023-11-21T00:52:16.898Z,88.47
2023-11-21T00:53:16.863Z,88.55
2023-11-21T00:54:16.905Z,88.60
2023-11-21T00:55:16.937Z,88.65
2023-11-21T00:56:16.892Z,88.65
2023-11-21T00:57:16.941Z,88.68
2023-11-21T00:58:16.934Z,88.72
2023-11-21T00:59:16.961Z,88.74
2023-11-21T01:00:16.925Z,88.76
2023-11-21T01:01:17.026Z,88.78
2023-11-21T01:02:17.045Z,88.81
2023-11-21T01:03:17.197Z,88.84
2023-11-21T01:04:17.028Z,88.87
2023-11-21T01:05:17.101Z,88.87
2023-11-21T01:06:17.059Z,88.89
2023-11-21T01:07:17.290Z,88.91
2023-11-21T01:08:17.084Z,88.90
2023-11-21T01:09:17.077Z,88.89
2023-11-21T01:10:17.224Z,88.91
2023-11-21T01:11:17.122Z,88.89
2023-11-21T01:12:17.144Z,88.89
2023-11-21T01:13:17.273Z,88.93
2023-11-21T01:14:17.207Z,88.93
2023-11-21T01:15:17.244Z,88.92
2023-11-21T01:16:17.281Z,88.89
2023-11-21T01:17:17.296Z,88.89
2023-11-21T01:18:17.277Z,88.88
2023-11-21T01:19:17.402Z,88.86
2023-11-21T01:20:17.348Z,88.86
2023-11-21T01:21:17.316Z,88.84
2023-11-21T01:22:17.349Z,88.82
2023-11-21T01:23:17.352Z,88.82
2023-11-21T01:24:17.362Z,88.81
2023-11-21T01:25:17.413Z,88.80
2023-11-21T01:26:17.526Z,88.82
2023-11-21T01:27:17.431Z,88.80
2023-11-21T01:28:17.488Z,88.80
2023-11-21T01:29:17.462Z,88.79
2023-11-21T01:30:17.484Z,88.83
2023-11-21T01:31:17.603Z,88.80
2023-11-21T01:32:17.532Z,88.80
2023-11-21T01:33:17.685Z,88.78
2023-11-21T01:34:17.554Z,88.79
2023-11-21T01:35:17.558Z,88.78
2023-11-21T01:36:17.581Z,88.76
2023-11-21T01:37:17.646Z,88.73
2023-11-21T01:38:17.607Z,88.71
2023-11-21T01:39:17.646Z,88.70
2023-11-21T01:40:17.663Z,88.71
2023-11-21T01:41:17.696Z,88.68
2023-11-21T01:42:17.700Z,88.68
2023-11-21T01:43:18.729Z,88.66
2023-11-21T01:44:17.730Z,88.66
2023-11-21T01:45:17.759Z,88.66
2023-11-21T01:46:17.821Z,88.68
2023-11-21T01:47:17.847Z,88.66
2023-11-21T01:48:18.094Z,88.64
2023-11-21T01:49:17.870Z,88.66
2023-11-21T01:50:17.885Z,88.64
2023-11-21T01:51:17.889Z,88.64
2023-11-21T01:52:17.903Z,88.64
2023-11-21T01:53:17.924Z,88.61
2023-11-21T01:54:18.553Z,88.61
2023-11-21T01:55:26.939Z,88.55
2023-11-21T01:56:17.990Z,88.56
2023-11-21T01:57:17.986Z,88.62
2023-11-21T01:58:18.089Z,88.60
2023-11-21T01:59:18.028Z,88.59
2023-11-21T02:00:18.090Z,88.56
2023-11-21T02:01:18.077Z,88.57
2023-11-21T02:02:18.097Z,88.52
2023-11-21T02:03:18.214Z,88.52
2023-11-21T02:04:18.221Z,88.50
2023-11-21T02:05:18.150Z,88.48
2023-11-21T02:06:18.154Z,88.51
2023-11-21T02:07:18.192Z,88.50
2023-11-21T02:08:18.189Z,88.50
2023-11-21T02:09:18.223Z,88.45
2023-11-21T02:10:18.464Z,88.49
2023-11-21T02:11:18.253Z,88.50
2023-11-21T02:12:18.270Z,88.42
2023-11-21T02:13:18.328Z,88.43
2023-11-21T02:14:18.319Z,88.42
2023-11-21T02:15:18.345Z,88.41
2023-11-21T02:16:18.360Z,88.41
2023-11-21T02:17:18.937Z,88.38
2023-11-21T02:18:18.435Z,88.36
2023-11-21T02:19:18.436Z,88.34
2023-11-21T02:20:18.488Z,88.33
2023-11-21T02:21:18.499Z,88.31
2023-11-21T02:22:18.496Z,88.29
2023-11-21T02:23:18.480Z,88.28
2023-11-21T02:24:18.543Z,88.22
2023-11-21T02:25:18.606Z,88.24
2023-11-21T02:26:18.547Z,88.23
2023-11-21T02:27:18.579Z,88.27
2023-11-21T02:28:18.615Z,88.26
2023-11-21T02:29:18.618Z,88.24
2023-11-21T02:30:18.622Z,88.21
2023-11-21T02:31:18.665Z,88.22
2023-11-21T02:32:18.676Z,88.17
2023-11-21T02:33:18.727Z,88.12
2023-11-21T02:34:19.488Z,88.08
2023-11-21T02:35:18.725Z,88.00
2023-11-21T02:36:18.740Z,87.95
2023-11-21T02:37:18.804Z,87.93
2023-11-21T02:38:18.777Z,87.86
2023-11-21T02:39:18.792Z,87.84
2023-11-21T02:40:19.125Z,87.80
2023-11-21T02:41:18.837Z,87.76
2023-11-21T02:42:18.856Z,87.71
2023-11-21T02:43:19.011Z,87.64
2023-11-21T02:44:18.892Z,87.61
2023-11-21T02:45:18.917Z,87.60
2023-11-21T02:46:18.992Z,87.58
2023-11-21T02:47:19.009Z,87.54
2023-11-21T02:48:19.073Z,87.53
2023-11-21T02:49:19.151Z,87.46
2023-11-21T02:50:19.014Z,87.48
2023-11-21T02:51:19.033Z,87.42
2023-11-21T02:52:19.087Z,87.39
2023-11-21T02:53:19.059Z,87.38
2023-11-21T02:54:20.478Z,87.35
2023-11-21T02:55:19.221Z,87.39
2023-11-21T02:56:19.125Z,87.41
2023-11-21T02:57:19.170Z,87.33
2023-11-21T02:58:19.181Z,87.35
2023-11-21T02:59:19.173Z,87.35
2023-11-21T03:00:19.230Z,87.35
2023-11-21T03:01:19.313Z,87.36
2023-11-21T03:02:19.313Z,87.39
2023-11-21T03:03:19.306Z,87.41
2023-11-21T03:04:19.399Z,87.38
2023-11-21T03:05:19.296Z,87.42
2023-11-21T03:06:19.336Z,87.45
2023-11-21T03:07:19.414Z,87.44
2023-11-21T03:08:19.399Z,87.47
2023-11-21T03:09:19.378Z,87.50
2023-11-21T03:10:19.431Z,87.56
2023-11-21T03:11:19.419Z,87.62
2023-11-21T03:12:19.453Z,87.65
2023-11-21T03:13:19.487Z,87.68
2023-11-21T03:14:19.560Z,87.78
2023-11-21T03:15:19.502Z,87.81
2023-11-21T03:16:19.620Z,87.87
2023-11-21T03:17:19.595Z,87.86
2023-11-21T03:18:19.621Z,87.91
2023-11-21T03:19:19.691Z,87.96
2023-11-21T03:20:19.598Z,87.97
2023-11-21T03:21:19.606Z,87.99
2023-11-21T03:22:19.653Z,88.00
2023-11-21T03:23:19.662Z,88.03
2023-11-21T03:24:19.674Z,88.05
2023-11-21T03:25:19.714Z,88.05
2023-11-21T03:26:19.719Z,88.10
2023-11-21T03:27:19.762Z,88.08
2023-11-21T03:28:19.829Z,88.07
2023-11-21T03:29:20.489Z,88.12
2023-11-21T03:30:19.801Z,88.08
2023-11-21T03:31:19.862Z,88.08
2023-11-21T03:32:19.838Z,88.10
2023-11-21T03:33:19.882Z,88.06
2023-11-21T03:34:19.906Z,88.10
2023-11-21T03:35:19.902Z,88.11
2023-11-21T03:36:19.926Z,88.13
2023-11-21T03:37:19.958Z,88.12
2023-11-21T03:38:19.976Z,88.03
2023-11-21T03:39:20.035Z,88.03
2023-11-21T03:40:20.030Z,88.04
2023-11-21T03:41:20.010Z,88.03
2023-11-21T03:42:20.047Z,87.96
2023-11-21T03:43:20.120Z,87.96
2023-11-21T03:44:20.164Z,87.93
2023-11-21T03:45:20.074Z,87.90
2023-11-21T03:46:20.126Z,87.92
2023-11-21T03:47:20.256Z,87.90
2023-11-21T03:48:20.245Z,87.90
2023-11-21T03:49:20.250Z,87.90
2023-11-21T03:50:20.205Z,87.87
2023-11-21T03:51:20.202Z,87.87
2023-11-21T03:52:20.246Z,87.84
2023-11-21T03:53:20.244Z,87.83
2023-11-21T03:54:20.268Z,87.81
2023-11-21T03:55:20.288Z,87.84
2023-11-21T03:56:20.313Z,87.84
2023-11-21T03:57:20.320Z,87.81
2023-11-21T03:58:20.387Z,87.79
2023-11-21T03:59:20.358Z,87.73
2023-11-21T04:00:20.389Z,87.67
2023-11-21T04:01:20.411Z,87.61
2023-11-21T04:02:20.460Z,87.48
2023-11-21T04:03:20.626Z,87.44
2023-11-21T04:04:20.554Z,87.40
2023-11-21T04:05:20.504Z,87.36
2023-11-21T04:06:20.506Z,87.33
2023-11-21T04:07:20.522Z,87.28
2023-11-21T04:08:20.559Z,87.28
2023-11-21T04:09:20.545Z,87.18
2023-11-21T04:10:20.665Z,87.19
2023-11-21T04:11:20.655Z,87.23
2023-11-21T04:12:20.657Z,87.23
2023-11-21T04:13:20.650Z,87.25
2023-11-21T04:14:20.655Z,87.26
2023-11-21T04:15:20.682Z,87.33
2023-11-21T04:16:20.747Z,87.40
2023-11-21T04:17:20.751Z,87.47
2023-11-21T04:18:20.741Z,87.54
2023-11-21T04:19:20.771Z,87.58
2023-11-21T04:20:20.818Z,87.54
2023-11-21T04:21:20.793Z,87.58
2023-11-21T04:22:20.887Z,87.59
2023-11-21T04:23:20.832Z,87.63
2023-11-21T04:24:20.877Z,87.71
2023-11-21T04:25:20.927Z,87.72
2023-11-21T04:26:20.902Z,87.82
2023-11-21T04:27:20.969Z,87.83
2023-11-21T04:28:21.016Z,87.89
2023-11-21T04:29:20.995Z,87.94
2023-11-21T04:30:21.026Z,87.96
2023-11-21T04:31:21.084Z,88.06
2023-11-21T04:32:21.023Z,88.04
2023-11-21T04:33:21.049Z,88.03
2023-11-21T04:34:21.163Z,87.98
2023-11-21T04:35:21.129Z,88.00
2023-11-21T04:36:21.102Z,87.93
2023-11-21T04:37:21.131Z,87.95
2023-11-21T04:38:21.145Z,87.93
2023-11-21T04:39:21.161Z,87.85
2023-11-21T04:40:21.198Z,87.83
2023-11-21T04:41:21.189Z,87.79
2023-11-21T04:42:21.226Z,87.77
2023-11-21T04:43:21.310Z,87.76
2023-11-21T04:44:21.259Z,87.79
2023-11-21T04:45:21.280Z,87.77
2023-11-21T04:46:21.448Z,87.77
2023-11-21T04:47:21.395Z,87.74
2023-11-21T04:48:21.343Z,87.78
2023-11-21T04:49:21.374Z,87.84
2023-11-21T04:50:21.392Z,87.80
2023-11-21T04:51:21.404Z,87.77
2023-11-21T04:52:21.460Z,87.73
2023-11-21T04:53:21.955Z,87.74
2023-11-21T04:54:21.462Z,87.75
2023-11-21T04:55:21.492Z,87.73
2023-11-21T04:56:21.510Z,87.70
2023-11-21T04:57:21.504Z,87.68
2023-11-21T04:58:21.558Z,87.65
2023-11-21T04:59:21.543Z,87.61
2023-11-21T05:00:21.593Z,87.59
2023-11-21T05:01:21.645Z,87.53
2023-11-21T05:02:31.195Z,87.46
2023-11-21T05:03:21.801Z,87.39
2023-11-21T05:04:21.856Z,87.38
2023-11-21T05:05:21.700Z,87.33
2023-11-21T05:06:21.691Z,87.21
2023-11-21T05:07:21.734Z,87.19
2023-11-21T05:08:21.773Z,87.11
2023-11-21T05:09:21.761Z,87.08
2023-11-21T05:10:21.784Z,87.00
2023-11-21T05:11:21.804Z,87.01
2023-11-21T05:12:21.824Z,86.96
2023-11-21T05:13:21.917Z,86.92
2023-11-21T05:14:21.879Z,86.87
2023-11-21T05:15:21.866Z,86.84
2023-11-21T05:16:22.052Z,86.77
2023-11-21T05:17:21.949Z,86.77
2023-11-21T05:18:22.006Z,86.73
2023-11-21T05:19:22.492Z,86.74
2023-11-21T05:20:21.987Z,86.70
2023-11-21T05:21:21.999Z,86.68
2023-11-21T05:22:22.010Z,86.62
2023-11-21T05:23:22.012Z,86.62
2023-11-21T05:24:22.040Z,86.57
2023-11-21T05:25:22.142Z,86.59
2023-11-21T05:26:22.065Z,86.59
2023-11-21T05:27:22.088Z,86.61
2023-11-21T05:28:22.155Z,86.70
2023-11-21T05:29:22.124Z,86.68
2023-11-21T05:30:22.168Z,86.71
2023-11-21T05:31:22.307Z,86.70
2023-11-21T05:32:22.215Z,86.71
2023-11-21T05:33:22.203Z,86.67
2023-11-21T05:34:22.310Z,86.66
2023-11-21T05:35:22.248Z,86.76
2023-11-21T05:36:22.311Z,86.75
2023-11-21T05:37:22.317Z,86.73
2023-11-21T05:38:22.307Z,86.72
2023-11-21T05:39:22.398Z,86.65
2023-11-21T05:40:22.378Z,86.59
2023-11-21T05:41:22.393Z,86.53
2023-11-21T05:42:22.396Z,86.57
2023-11-21T05:43:22.457Z,86.66
2023-11-21T05:44:22.429Z,86.67
2023-11-21T05:45:22.429Z,86.60
2023-11-21T05:46:22.565Z,86.66
2023-11-21T05:47:22.568Z,86.66
2023-11-21T05:48:22.594Z,86.69
2023-11-21T05:49:22.519Z,86.69
2023-11-21T05:50:22.542Z,86.75
2023-11-21T05:51:22.562Z,86.78
2023-11-21T05:52:22.675Z,86.81
2023-11-21T05:53:22.653Z,86.92
2023-11-21T05:54:22.627Z,87.01
2023-11-21T05:55:22.683Z,87.10
2023-11-21T05:56:22.665Z,87.17
2023-11-21T05:57:22.718Z,87.27
2023-11-21T05:58:22.824Z,87.31
2023-11-21T05:59:23.850Z,87.33
2023-11-21T06:00:22.946Z,87.37
2023-11-21T06:01:22.856Z,87.45
2023-11-21T06:02:22.783Z,87.50
2023-11-21T06:03:22.896Z,87.51
2023-11-21T06:04:22.940Z,87.53
2023-11-21T06:05:22.856Z,87.53
2023-11-21T06:06:22.854Z,87.51
2023-11-21T06:07:22.879Z,87.49
2023-11-21T06:08:22.898Z,87.48
2023-11-21T06:09:22.935Z,87.44
2023-11-21T06:10:22.958Z,87.42
2023-11-21T06:11:22.952Z,87.44
2023-11-21T06:12:22.974Z,87.41
2023-11-21T06:13:23.035Z,87.45
2023-11-21T06:14:23.058Z,87.49
2023-11-21T06:15:23.604Z,87.46
2023-11-21T06:16:23.092Z,87.48
2023-11-21T06:17:23.140Z,87.51
2023-11-21T06:18:23.118Z,87.57
2023-11-21T06:19:23.103Z,87.59
2023-11-21T06:20:23.118Z,87.60
2023-11-21T06:21:23.135Z,87.66
2023-11-21T06:22:23.201Z,87.66
2023-11-21T06:23:23.185Z,87.69
2023-11-21T06:24:23.207Z,87.71
2023-11-21T06:25:23.371Z,87.72
2023-11-21T06:26:23.268Z,87.75
2023-11-21T06:27:23.252Z,87.66
2023-11-21T06:28:23.310Z,87.63
2023-11-21T06:29:23.302Z,87.64
2023-11-21T06:30:23.371Z,87.59
2023-11-21T06:31:23.370Z,87.53
2023-11-21T06:32:23.393Z,87.43
2023-11-21T06:33:23.376Z,87.34
2023-11-21T06:34:23.507Z,87.21
2023-11-21T06:35:23.648Z,87.12
2023-11-21T06:36:23.453Z,87.08
2023-11-21T06:37:23.476Z,87.10
2023-11-21T06:38:23.489Z,87.06
2023-11-21T06:39:23.544Z,86.95
2023-11-21T06:40:23.556Z,86.86
2023-11-21T06:41:23.540Z,86.73
2023-11-21T06:42:23.554Z,86.64
2023-11-21T06:43:23.596Z,86.52
2023-11-21T06:44:23.585Z,86.39
2023-11-21T06:45:23.617Z,86.29
2023-11-21T06:46:23.769Z,86.20
2023-11-21T06:47:23.850Z,86.07
2023-11-21T06:48:23.756Z,85.97
2023-11-21T06:49:23.703Z,85.90
2023-11-21T06:50:23.727Z,85.87
2023-11-21T06:51:24.491Z,85.86
2023-11-21T06:52:23.861Z,85.85
2023-11-21T06:53:23.773Z,85.88
2023-11-21T06:54:23.788Z,85.84
2023-11-21T06:55:23.869Z,85.82
2023-11-21T06:56:23.854Z,85.78
2023-11-21T06:57:23.849Z,85.79
2023-11-21T06:58:23.957Z,85.81
2023-11-21T06:59:23.892Z,85.81
2023-11-21T07:00:23.949Z,85.83
2023-11-21T07:01:24.000Z,85.88
2023-11-21T07:02:24.021Z,85.92
2023-11-21T07:03:24.016Z,85.87
2023-11-21T07:04:24.628Z,85.92
2023-11-21T07:05:24.081Z,85.97
2023-11-21T07:06:24.016Z,85.99
2023-11-21T07:07:25.114Z,85.98
2023-11-21T07:08:24.053Z,85.94
2023-11-21T07:09:24.998Z,85.97
2023-11-21T07:10:24.125Z,85.93
2023-11-21T07:11:24.120Z,85.89
2023-11-21T07:12:24.134Z,85.83
2023-11-21T07:13:24.204Z,85.80
2023-11-21T07:14:24.165Z,85.72
2023-11-21T07:15:24.213Z,85.66
2023-11-21T07:16:24.310Z,85.51
2023-11-21T07:17:24.241Z,85.38
2023-11-21T07:18:27.217Z,85.23
2023-11-21T07:19:24.282Z,85.04
2023-11-21T07:20:24.286Z,84.94
2023-11-21T07:21:24.313Z,84.84
2023-11-21T07:22:25.202Z,84.76
2023-11-21T07:23:24.397Z,84.71
2023-11-21T07:24:27.388Z,84.65
2023-11-21T07:25:24.530Z,84.61
2023-11-21T07:26:24.407Z,84.55
2023-11-21T07:27:24.443Z,84.42
2023-11-21T07:28:24.469Z,84.33
2023-11-21T07:29:24.481Z,84.32
2023-11-21T07:30:27.105Z,84.27
2023-11-21T07:31:24.562Z,84.20
2023-11-21T07:32:24.595Z,84.15
2023-11-21T07:33:25.220Z,84.08
2023-11-21T07:34:24.639Z,84.00
2023-11-21T07:35:25.117Z,83.95
2023-11-21T07:36:24.613Z,83.85
2023-11-21T07:37:24.658Z,83.81
2023-11-21T07:38:24.645Z,83.78
2023-11-21T07:39:24.675Z,83.67
2023-11-21T07:40:24.722Z,83.62
2023-11-21T07:41:29.213Z,83.58
2023-11-21T07:42:24.731Z,83.53
2023-11-21T07:43:24.777Z,83.46
2023-11-21T07:44:24.808Z,83.36
2023-11-21T07:45:24.846Z,83.25
2023-11-21T07:46:25.750Z,83.22
2023-11-21T07:47:24.931Z,83.23
2023-11-21T07:48:24.905Z,83.23
2023-11-21T07:49:24.906Z,83.18
2023-11-21T07:50:24.925Z,83.02
2023-11-21T07:51:24.912Z,82.99
2023-11-21T07:52:24.941Z,83.03
2023-11-21T07:53:25.664Z,83.08
2023-11-21T07:54:24.953Z,83.06
2023-11-21T07:55:25.052Z,83.07
2023-11-21T07:56:25.003Z,83.09
2023-11-21T07:57:25.156Z,83.20
2023-11-21T07:58:25.053Z,83.36
2023-11-21T07:59:25.057Z,83.51
2023-11-21T08:00:25.102Z,83.67
2023-11-21T08:01:25.200Z,83.80
2023-11-21T08:02:25.184Z,83.99
2023-11-21T08:03:25.220Z,84.14
2023-11-21T08:04:25.198Z,84.24
2023-11-21T08:05:32.344Z,84.32
2023-11-21T08:06:25.254Z,84.45
2023-11-21T08:07:26.162Z,84.60
2023-11-21T08:08:25.220Z,84.73
2023-11-21T08:09:25.243Z,84.80
2023-11-21T08:10:25.305Z,84.84
2023-11-21T08:11:34.723Z,84.88
2023-11-21T08:12:25.333Z,84.87
2023-11-21T08:13:26.829Z,84.81
2023-11-21T08:14:25.359Z,84.75
2023-11-21T08:15:25.407Z,84.71
2023-11-21T08:16:25.677Z,84.67
2023-11-21T08:17:25.418Z,84.64
2023-11-21T08:18:25.467Z,84.60
2023-11-21T08:19:25.515Z,84.56
2023-11-21T08:20:25.559Z,84.46
2023-11-21T08:21:25.482Z,84.32
2023-11-21T08:22:25.505Z,84.12
2023-11-21T08:23:25.698Z,84.08
2023-11-21T08:24:25.574Z,84.09
2023-11-21T08:25:25.593Z,84.10
2023-11-21T08:26:25.560Z,84.03
2023-11-21T08:27:25.629Z,84.00
2023-11-21T08:28:25.635Z,83.95
2023-11-21T08:29:25.648Z,83.96
2023-11-21T08:30:25.639Z,83.97
2023-11-21T08:31:25.695Z,83.95
2023-11-21T08:32:25.682Z,83.98
2023-11-21T08:33:25.750Z,83.99
2023-11-21T08:34:25.840Z,84.02
2023-11-21T08:35:25.835Z,84.00
2023-11-21T08:36:26.874Z,83.96
2023-11-21T08:37:25.802Z,83.91
2023-11-21T08:38:25.866Z,83.83
2023-11-21T08:39:25.884Z,83.76
2023-11-21T08:40:25.863Z,83.66
2023-11-21T08:41:25.926Z,83.61
2023-11-21T08:42:26.817Z,83.53
2023-11-21T08:43:25.953Z,83.48
2023-11-21T08:44:25.948Z,83.43
2023-11-21T08:45:25.928Z,83.35
2023-11-21T08:46:26.048Z,83.34
2023-11-21T08:47:25.980Z,83.34
2023-11-21T08:48:25.980Z,83.40
2023-11-21T08:49:26.001Z,83.48
2023-11-21T08:50:26.025Z,83.62
2023-11-21T08:51:26.123Z,83.75
2023-11-21T08:52:26.087Z,83.88
2023-11-21T08:53:26.112Z,83.93
2023-11-21T08:54:26.086Z,83.99
2023-11-21T08:55:26.136Z,84.03
2023-11-21T08:56:26.175Z,84.14
2023-11-21T08:57:26.142Z,84.22
2023-11-21T08:58:26.189Z,84.39
2023-11-21T08:59:26.196Z,84.50
2023-11-21T09:00:26.210Z,84.57
2023-11-21T09:01:26.357Z,84.70
2023-11-21T09:02:26.283Z,84.84
2023-11-21T09:03:26.305Z,84.82
2023-11-21T09:04:26.314Z,84.81
2023-11-21T09:05:26.346Z,84.84
2023-11-21T09:06:26.379Z,84.87
2023-11-21T09:07:26.446Z,84.87
2023-11-21T09:08:26.391Z,84.86
2023-11-21T09:09:26.377Z,84.82
2023-11-21T09:10:26.956Z,84.81
2023-11-21T09:11:26.462Z,84.76
2023-11-21T09:12:26.437Z,84.72
2023-11-21T09:13:26.645Z,84.65
2023-11-21T09:14:26.482Z,84.58
2023-11-21T09:15:27.264Z,84.59
2023-11-21T09:16:26.614Z,84.57
2023-11-21T09:17:26.620Z,84.54
2023-11-21T09:18:26.614Z,84.58
2023-11-21T09:19:26.726Z,84.59
2023-11-21T09:20:26.590Z,84.69
2023-11-21T09:21:26.611Z,84.71
2023-11-21T09:22:26.636Z,84.78
2023-11-21T09:23:26.649Z,84.74
2023-11-21T09:24:26.691Z,84.79
2023-11-21T09:25:26.803Z,84.82
2023-11-21T09:26:26.842Z,84.82
2023-11-21T09:27:26.721Z,84.71
2023-11-21T09:28:26.794Z,84.56
2023-11-21T09:29:26.759Z,84.56
2023-11-21T09:30:26.832Z,84.46
2023-11-21T09:31:26.856Z,84.40
2023-11-21T09:32:26.807Z,84.44
2023-11-21T09:33:28.063Z,84.44
2023-11-21T09:34:27.058Z,84.51
2023-11-21T09:35:26.914Z,84.47
2023-11-21T09:36:26.959Z,84.42
2023-11-21T09:37:27.319Z,84.44
2023-11-21T09:38:26.932Z,84.50
2023-11-21T09:39:27.610Z,84.46
2023-11-21T09:40:28.031Z,84.45
2023-11-21T09:41:26.989Z,84.44
2023-11-21T09:42:27.084Z,84.34
2023-11-21T09:43:27.135Z,84.33
2023-11-21T09:44:27.808Z,84.27
2023-11-21T09:45:28.101Z,84.38
2023-11-21T09:46:27.173Z,84.42
2023-11-21T09:47:27.170Z,84.40
2023-11-21T09:48:27.148Z,84.39
2023-11-21T09:49:27.210Z,84.22
2023-11-21T09:50:27.174Z,84.14
2023-11-21T09:51:27.197Z,84.13
2023-11-21T09:52:27.240Z,84.26
2023-11-21T09:53:27.298Z,84.16
2023-11-21T09:54:27.245Z,84.14
2023-11-21T09:55:27.318Z,84.19
2023-11-21T09:56:28.223Z,84.12
2023-11-21T09:57:27.313Z,84.12
2023-11-21T09:58:27.373Z,84.03
2023-11-21T09:59:27.435Z,83.94
2023-11-21T10:00:28.107Z,83.96
2023-11-21T10:01:27.449Z,84.10
2023-11-21T10:02:27.746Z,84.08
2023-11-21T10:03:27.537Z,84.05
2023-11-21T10:04:27.547Z,84.04
2023-11-21T10:05:29.331Z,84.02
2023-11-21T10:06:27.473Z,84.09
2023-11-21T10:07:27.518Z,84.22
2023-11-21T10:08:31.551Z,84.30
2023-11-21T10:09:27.572Z,84.35
2023-11-21T10:10:27.597Z,84.34
2023-11-21T10:11:27.617Z,84.40
2023-11-21T10:12:28.231Z,84.30
2023-11-21T10:13:29.181Z,84.29
2023-11-21T10:14:27.740Z,84.27
2023-11-21T10:15:27.807Z,84.21
2023-11-21T10:16:27.798Z,84.25
2023-11-21T10:17:28.350Z,84.32
2023-11-21T10:18:27.730Z,84.43
2023-11-21T10:19:27.862Z,84.42
2023-11-21T10:20:27.777Z,84.39
2023-11-21T10:21:27.779Z,84.46
2023-11-21T10:22:27.834Z,84.49
2023-11-21T10:23:27.845Z,84.52
2023-11-21T10:24:29.941Z,84.54
2023-11-21T10:25:27.872Z,84.51
2023-11-21T10:26:31.313Z,84.53
2023-11-21T10:27:28.712Z,84.63
2023-11-21T10:28:27.908Z,84.48
2023-11-21T10:29:27.959Z,84.44
2023-11-21T10:30:27.961Z,84.41
2023-11-21T10:31:28.121Z,84.39
2023-11-21T10:32:28.008Z,84.34
2023-11-21T10:33:28.044Z,84.30
2023-11-21T10:34:30.776Z,84.33
2023-11-21T10:35:28.048Z,84.24
2023-11-21T10:36:28.050Z,84.15
2023-11-21T10:37:28.258Z,84.14
2023-11-21T10:38:28.105Z,84.13
2023-11-21T10:39:28.109Z,84.11
2023-11-21T10:40:28.187Z,84.04
2023-11-21T10:41:28.249Z,84.09
2023-11-21T10:42:28.346Z,84.15
2023-11-21T10:43:28.648Z,84.15
2023-11-21T10:44:28.271Z,84.19
2023-11-21T10:45:28.252Z,84.17
2023-11-21T10:46:28.387Z,84.14
2023-11-21T10:47:28.331Z,84.15
2023-11-21T10:48:28.350Z,84.07
2023-11-21T10:49:28.512Z,84.11
2023-11-21T10:50:28.404Z,83.92
2023-11-21T10:51:28.396Z,83.82
2023-11-21T10:52:28.469Z,83.72
2023-11-21T10:53:28.473Z,83.50
2023-11-21T10:54:28.494Z,83.40
2023-11-21T10:55:28.494Z,83.43
2023-11-21T10:56:28.454Z,83.54
2023-11-21T10:57:28.605Z,83.65
2023-11-21T10:58:28.545Z,83.74
2023-11-21T10:59:28.521Z,83.78
2023-11-21T11:00:28.592Z,83.85
2023-11-21T11:01:28.545Z,83.89
2023-11-21T11:02:29.111Z,83.90
2023-11-21T11:03:28.656Z,83.91
2023-11-21T11:04:28.691Z,84.05
2023-11-21T11:05:28.735Z,83.98
2023-11-21T11:06:28.607Z,84.05
2023-11-21T11:07:28.721Z,84.14
2023-11-21T11:08:29.082Z,84.20
2023-11-21T11:09:28.796Z,84.26
2023-11-21T11:10:28.942Z,84.39
2023-11-21T11:11:29.768Z,84.54
2023-11-21T11:12:29.790Z,84.61
2023-11-21T11:13:28.744Z,84.65
2023-11-21T11:14:29.827Z,84.71
2023-11-21T11:15:35.432Z,84.72
2023-11-21T11:16:28.867Z,84.76
2023-11-21T11:17:28.867Z,84.94
2023-11-21T11:18:28.922Z,84.87
2023-11-21T11:19:29.077Z,84.93
2023-11-21T11:20:28.886Z,85.01
2023-11-21T11:21:28.956Z,84.99
2023-11-21T11:22:29.006Z,84.96
2023-11-21T11:23:28.935Z,84.88
2023-11-21T11:24:29.002Z,84.82
2023-11-21T11:25:29.079Z,84.74
2023-11-21T11:26:29.262Z,84.68
2023-11-21T11:27:29.103Z,84.68
2023-11-21T11:28:29.099Z,84.59
2023-11-21T11:29:29.066Z,84.56
2023-11-21T11:30:29.131Z,84.56
2023-11-21T11:31:29.117Z,84.62
2023-11-21T11:32:29.158Z,84.59
2023-11-21T11:33:29.121Z,84.61
2023-11-21T11:34:29.253Z,84.51
2023-11-21T11:35:29.349Z,84.47
2023-11-21T11:36:29.389Z,84.43
2023-11-21T11:37:29.281Z,84.47
2023-11-21T11:38:30.250Z,84.52
2023-11-21T11:39:29.256Z,84.50
2023-11-21T11:40:29.392Z,84.58
2023-11-21T11:41:29.278Z,84.69
2023-11-21T11:42:30.250Z,84.80
2023-11-21T11:43:30.255Z,84.78
2023-11-21T11:44:29.494Z,84.88
2023-11-21T11:45:29.501Z,84.88
2023-11-21T11:46:30.380Z,84.87
2023-11-21T11:47:29.810Z,84.94
2023-11-21T11:48:29.625Z,84.95
2023-11-21T11:49:29.769Z,84.97
2023-11-21T11:50:29.500Z,84.96
2023-11-21T11:51:30.940Z,84.96
2023-11-21T11:52:30.296Z,84.95
2023-11-21T11:53:31.049Z,84.96
2023-11-21T11:54:30.185Z,84.93
2023-11-21T11:55:32.812Z,84.90
2023-11-21T11:56:32.057Z,84.90
2023-11-21T11:57:31.397Z,84.92
2023-11-21T11:58:30.634Z,84.95
2023-11-21T11:59:29.683Z,84.98
2023-11-21T12:00:30.896Z,85.12
2023-11-21T12:01:29.812Z,85.21
2023-11-21T12:02:29.917Z,85.33
2023-11-21T12:03:29.851Z,85.44
2023-11-21T12:04:30.174Z,85.57
2023-11-21T12:05:30.946Z,85.63
2023-11-21T12:06:29.879Z,85.69
2023-11-21T12:07:29.854Z,85.88
2023-11-21T12:08:29.823Z,85.94
2023-11-21T12:09:29.848Z,86.01
2023-11-21T12:10:29.950Z,86.13
2023-11-21T12:11:31.393Z,86.22
2023-11-21T12:12:30.234Z,86.28
2023-11-21T12:13:30.108Z,86.31
2023-11-21T12:14:30.083Z,86.42
2023-11-21T12:15:29.963Z,86.48
2023-11-21T12:16:30.679Z,86.54
2023-11-21T12:17:19.451Z,86.59
2023-11-21T12:18:22.814Z,86.69
2023-11-21T12:19:22.443Z,86.76
2023-11-21T12:20:20.322Z,86.91
2023-11-21T12:21:20.403Z,86.89
2023-11-21T12:22:01.076Z,86.87
2023-11-21T12:23:08.598Z,86.96
2023-11-21T12:24:01.505Z,86.91
2023-11-21T12:25:01.700Z,86.97
2023-11-21T12:26:01.657Z,86.97
2023-11-21T12:27:00.649Z,86.95
2023-11-21T12:28:00.702Z,86.94
2023-11-21T12:29:01.444Z,86.97
2023-11-21T12:30:01.350Z,86.95
2023-11-21T12:31:10.942Z,86.98
2023-11-21T12:32:02.088Z,86.98
2023-11-21T12:33:00.996Z,86.96
2023-11-21T12:34:04.070Z,86.89
2023-11-21T12:35:01.452Z,86.93
2023-11-21T12:36:01.096Z,86.91
2023-11-21T12:37:09.569Z,86.90
2023-11-21T12:38:00.886Z,86.93
2023-11-21T12:39:00.842Z,86.89
2023-11-21T12:40:00.861Z,86.84
2023-11-21T12:41:00.929Z,86.77
2023-11-21T12:42:00.956Z,86.73
2023-11-21T12:43:00.964Z,86.68
2023-11-21T12:44:01.024Z,86.58
2023-11-21T12:45:01.013Z,86.52
2023-11-21T12:46:00.988Z,86.43
2023-11-21T12:47:01.038Z,86.44
2023-11-21T12:48:01.491Z,86.39
2023-11-21T12:49:01.073Z,86.34
2023-11-21T12:50:01.139Z,86.37
2023-11-21T12:51:01.142Z,86.29
2023-11-21T12:52:01.948Z,86.26